sensor_id;sensor_type;location;lat;lon;timestamp;P1;durP1;ratioP1;P2;durP2;ratioP2
25079;SDS011;13071;48.868;9.996;2022-11-15T00:00:54;1.63;;;1.52;;
25079;SDS011;13071;48.868;9.996;2022-11-15T00:03:22;2.20;;;1.48;;
25079;SDS011;13071;48.868;9.996;2022-11-15T00:05:50;1.58;;;1.48;;
25079;SDS011;13071;48.868;9.996;2022-11-15T00:08:17;2.03;;;1.60;;
25079;SDS011;13071;48.868;9.996;2022-11-15T00:10:53;3.90;;;1.73;;
25079;SDS011;13071;48.868;9.996;2022-11-15T00:13:20;2.20;;;1.52;;
25079;SDS011;13071;48.868;9.996;2022-11-15T00:15:48;5.60;;;1.52;;
25079;SDS011;13071;48.868;9.996;2022-11-15T00:18:15;1.75;;;1.40;;
25079;SDS011;13071;48.868;9.996;2022-11-15T00:20:41;2.28;;;1.55;;
25079;SDS011;13071;48.868;9.996;2022-11-15T00:23:08;1.60;;;1.50;;
25079;SDS011;13071;48.868;9.996;2022-11-15T00:25:35;3.33;;;1.52;;
25079;SDS011;13071;48.868;9.996;2022-11-15T00:28:02;1.85;;;1.45;;
25079;SDS011;13071;48.868;9.996;2022-11-15T00:30:29;2.20;;;1.52;;
25079;SDS011;13071;48.868;9.996;2022-11-15T00:32:57;1.40;;;1.30;;
25079;SDS011;13071;48.868;9.996;2022-11-15T00:35:27;4.60;;;1.70;;
25079;SDS011;13071;48.868;9.996;2022-11-15T00:37:54;2.13;;;1.92;;
25079;SDS011;13071;48.868;9.996;2022-11-15T00:40:21;2.78;;;1.90;;
25079;SDS011;13071;48.868;9.996;2022-11-15T00:42:47;3.20;;;1.85;;
25079;SDS011;13071;48.868;9.996;2022-11-15T00:45:14;2.05;;;1.55;;
25079;SDS011;13071;48.868;9.996;2022-11-15T00:47:43;2.65;;;2.05;;
25079;SDS011;13071;48.868;9.996;2022-11-15T00:50:11;2.55;;;1.77;;
25079;SDS011;13071;48.868;9.996;2022-11-15T00:52:38;3.22;;;1.98;;
25079;SDS011;13071;48.868;9.996;2022-11-15T00:55:05;3.08;;;1.98;;
25079;SDS011;13071;48.868;9.996;2022-11-15T00:57:32;3.85;;;1.95;;
25079;SDS011;13071;48.868;9.996;2022-11-15T00:59:58;2.30;;;1.65;;
25079;SDS011;13071;48.868;9.996;2022-11-15T01:02:25;1.85;;;1.67;;
25079;SDS011;13071;48.868;9.996;2022-11-15T01:04:53;3.95;;;1.65;;
25079;SDS011;13071;48.868;9.996;2022-11-15T01:07:21;2.20;;;1.98;;
25079;SDS011;13071;48.868;9.996;2022-11-15T01:09:47;2.47;;;1.90;;
25079;SDS011;13071;48.868;9.996;2022-11-15T01:12:14;3.30;;;1.92;;
25079;SDS011;13071;48.868;9.996;2022-11-15T01:14:40;1.70;;;1.60;;
25079;SDS011;13071;48.868;9.996;2022-11-15T01:17:07;5.80;;;2.20;;
25079;SDS011;13071;48.868;9.996;2022-11-15T01:19:34;3.20;;;2.17;;
25079;SDS011;13071;48.868;9.996;2022-11-15T01:22:00;2.70;;;1.90;;
25079;SDS011;13071;48.868;9.996;2022-11-15T01:24:28;4.70;;;2.20;;
25079;SDS011;13071;48.868;9.996;2022-11-15T01:26:55;3.42;;;2.65;;
25079;SDS011;13071;48.868;9.996;2022-11-15T01:29:22;2.80;;;1.83;;
25079;SDS011;13071;48.868;9.996;2022-11-15T01:31:48;2.13;;;1.92;;
25079;SDS011;13071;48.868;9.996;2022-11-15T01:34:15;3.78;;;1.83;;
25079;SDS011;13071;48.868;9.996;2022-11-15T01:36:41;2.75;;;1.92;;
25079;SDS011;13071;48.868;9.996;2022-11-15T01:39:08;2.05;;;1.63;;
25079;SDS011;13071;48.868;9.996;2022-11-15T01:41:36;2.10;;;1.90;;
25079;SDS011;13071;48.868;9.996;2022-11-15T01:47:04;4.65;;;2.20;;
25079;SDS011;13071;48.868;9.996;2022-11-15T01:49:37;3.22;;;1.80;;
25079;SDS011;13071;48.868;9.996;2022-11-15T01:52:07;3.30;;;1.65;;
25079;SDS011;13071;48.868;9.996;2022-11-15T01:54:36;2.92;;;2.10;;
25079;SDS011;13071;48.868;9.996;2022-11-15T01:57:05;2.67;;;1.75;;
25079;SDS011;13071;48.868;9.996;2022-11-15T01:59:36;3.97;;;1.70;;
25079;SDS011;13071;48.868;9.996;2022-11-15T02:02:04;3.00;;;1.73;;
25079;SDS011;13071;48.868;9.996;2022-11-15T02:04:32;2.58;;;1.90;;
25079;SDS011;13071;48.868;9.996;2022-11-15T02:07:01;1.85;;;1.48;;
25079;SDS011;13071;48.868;9.996;2022-11-15T02:09:29;4.25;;;1.55;;
25079;SDS011;13071;48.868;9.996;2022-11-15T02:11:56;1.50;;;1.42;;
25079;SDS011;13071;48.868;9.996;2022-11-15T02:14:26;1.52;;;1.42;;
25079;SDS011;13071;48.868;9.996;2022-11-15T02:16:57;1.63;;;1.52;;
25079;SDS011;13071;48.868;9.996;2022-11-15T02:19:39;5.60;;;1.80;;
25079;SDS011;13071;48.868;9.996;2022-11-15T02:22:20;3.50;;;2.00;;
25079;SDS011;13071;48.868;9.996;2022-11-15T02:25:01;2.47;;;1.70;;
25079;SDS011;13071;48.868;9.996;2022-11-15T02:27:42;4.55;;;2.05;;
25079;SDS011;13071;48.868;9.996;2022-11-15T02:30:25;2.10;;;1.83;;
25079;SDS011;13071;48.868;9.996;2022-11-15T02:32:58;2.67;;;1.77;;
25079;SDS011;13071;48.868;9.996;2022-11-15T02:35:31;2.08;;;1.60;;
25079;SDS011;13071;48.868;9.996;2022-11-15T02:38:08;3.33;;;2.03;;
25079;SDS011;13071;48.868;9.996;2022-11-15T02:40:42;1.55;;;1.45;;
25079;SDS011;13071;48.868;9.996;2022-11-15T02:43:16;8.25;;;1.73;;
25079;SDS011;13071;48.868;9.996;2022-11-15T02:46:08;2.15;;;1.80;;
25079;SDS011;13071;48.868;9.996;2022-11-15T02:48:40;1.70;;;1.60;;
25079;SDS011;13071;48.868;9.996;2022-11-15T02:51:09;2.78;;;1.90;;
25079;SDS011;13071;48.868;9.996;2022-11-15T02:53:36;3.05;;;1.58;;
25079;SDS011;13071;48.868;9.996;2022-11-15T02:56:02;3.33;;;1.90;;
25079;SDS011;13071;48.868;9.996;2022-11-15T03:01:31;3.00;;;2.13;;
25079;SDS011;13071;48.868;9.996;2022-11-15T03:04:08;6.20;;;2.00;;
25079;SDS011;13071;48.868;9.996;2022-11-15T03:06:49;3.47;;;2.10;;
25079;SDS011;13071;48.868;9.996;2022-11-15T03:09:22;2.97;;;1.85;;
25079;SDS011;13071;48.868;9.996;2022-11-15T03:11:59;2.38;;;1.50;;
25079;SDS011;13071;48.868;9.996;2022-11-15T03:14:30;2.58;;;1.73;;
25079;SDS011;13071;48.868;9.996;2022-11-15T03:17:08;5.47;;;2.17;;
25079;SDS011;13071;48.868;9.996;2022-11-15T03:19:43;2.53;;;1.65;;
25079;SDS011;13071;48.868;9.996;2022-11-15T03:22:13;2.60;;;1.50;;
25079;SDS011;13071;48.868;9.996;2022-11-15T03:24:43;4.63;;;1.73;;
25079;SDS011;13071;48.868;9.996;2022-11-15T03:27:12;3.03;;;1.80;;
25079;SDS011;13071;48.868;9.996;2022-11-15T03:29:42;3.60;;;1.65;;
25079;SDS011;13071;48.868;9.996;2022-11-15T03:32:13;3.58;;;2.30;;
25079;SDS011;13071;48.868;9.996;2022-11-15T03:34:44;4.63;;;2.17;;
25079;SDS011;13071;48.868;9.996;2022-11-15T03:37:15;5.25;;;2.35;;
25079;SDS011;13071;48.868;9.996;2022-11-15T03:39:43;2.67;;;2.20;;
25079;SDS011;13071;48.868;9.996;2022-11-15T03:42:13;3.15;;;2.35;;
25079;SDS011;13071;48.868;9.996;2022-11-15T03:44:49;5.13;;;2.50;;
25079;SDS011;13071;48.868;9.996;2022-11-15T03:47:23;4.93;;;2.22;;
25079;SDS011;13071;48.868;9.996;2022-11-15T03:49:55;7.38;;;2.50;;
25079;SDS011;13071;48.868;9.996;2022-11-15T03:52:25;5.30;;;2.10;;
25079;SDS011;13071;48.868;9.996;2022-11-15T03:54:57;4.03;;;2.42;;
25079;SDS011;13071;48.868;9.996;2022-11-15T03:57:27;4.53;;;2.50;;
25079;SDS011;13071;48.868;9.996;2022-11-15T03:59:53;5.03;;;2.70;;
25079;SDS011;13071;48.868;9.996;2022-11-15T04:02:20;5.85;;;2.50;;
25079;SDS011;13071;48.868;9.996;2022-11-15T04:04:48;4.55;;;2.33;;
25079;SDS011;13071;48.868;9.996;2022-11-15T04:07:14;7.63;;;2.95;;
25079;SDS011;13071;48.868;9.996;2022-11-15T04:09:41;5.50;;;3.00;;
25079;SDS011;13071;48.868;9.996;2022-11-15T04:12:22;6.32;;;3.17;;
25079;SDS011;13071;48.868;9.996;2022-11-15T04:14:55;5.57;;;3.10;;
25079;SDS011;13071;48.868;9.996;2022-11-15T04:17:33;6.20;;;3.25;;
25079;SDS011;13071;48.868;9.996;2022-11-15T04:20:02;7.50;;;3.20;;
25079;SDS011;13071;48.868;9.996;2022-11-15T04:22:46;4.65;;;2.95;;
25079;SDS011;13071;48.868;9.996;2022-11-15T04:25:30;6.25;;;2.65;;
25079;SDS011;13071;48.868;9.996;2022-11-15T04:27:57;4.15;;;2.40;;
25079;SDS011;13071;48.868;9.996;2022-11-15T04:30:23;4.85;;;2.80;;
25079;SDS011;13071;48.868;9.996;2022-11-15T04:32:50;6.20;;;3.08;;
25079;SDS011;13071;48.868;9.996;2022-11-15T04:35:18;3.80;;;2.63;;
25079;SDS011;13071;48.868;9.996;2022-11-15T04:37:45;6.50;;;3.50;;
25079;SDS011;13071;48.868;9.996;2022-11-15T04:40:11;7.03;;;3.00;;
25079;SDS011;13071;48.868;9.996;2022-11-15T04:42:37;8.23;;;3.13;;
25079;SDS011;13071;48.868;9.996;2022-11-15T04:45:07;6.32;;;3.38;;
25079;SDS011;13071;48.868;9.996;2022-11-15T04:47:33;8.23;;;3.33;;
25079;SDS011;13071;48.868;9.996;2022-11-15T04:50:00;5.35;;;3.20;;
25079;SDS011;13071;48.868;9.996;2022-11-15T04:52:28;4.60;;;3.08;;
25079;SDS011;13071;48.868;9.996;2022-11-15T04:54:55;5.88;;;3.40;;
25079;SDS011;13071;48.868;9.996;2022-11-15T04:57:22;6.72;;;3.42;;
25079;SDS011;13071;48.868;9.996;2022-11-15T04:59:48;7.85;;;3.75;;
25079;SDS011;13071;48.868;9.996;2022-11-15T05:02:15;6.50;;;3.60;;
25079;SDS011;13071;48.868;9.996;2022-11-15T05:04:42;8.50;;;3.75;;
25079;SDS011;13071;48.868;9.996;2022-11-15T05:07:07;4.93;;;3.13;;
25079;SDS011;13071;48.868;9.996;2022-11-15T05:09:35;8.98;;;3.80;;
25079;SDS011;13071;48.868;9.996;2022-11-15T05:12:02;7.43;;;4.20;;
25079;SDS011;13071;48.868;9.996;2022-11-15T05:14:29;7.40;;;3.67;;
25079;SDS011;13071;48.868;9.996;2022-11-15T05:16:55;10.45;;;4.20;;
25079;SDS011;13071;48.868;9.996;2022-11-15T05:19:22;9.23;;;4.25;;
25079;SDS011;13071;48.868;9.996;2022-11-15T05:21:49;8.30;;;4.28;;
25079;SDS011;13071;48.868;9.996;2022-11-15T05:24:16;6.35;;;3.63;;
25079;SDS011;13071;48.868;9.996;2022-11-15T05:26:44;5.85;;;3.58;;
25079;SDS011;13071;48.868;9.996;2022-11-15T05:29:10;8.18;;;4.30;;
25079;SDS011;13071;48.868;9.996;2022-11-15T05:31:38;6.45;;;3.80;;
25079;SDS011;13071;48.868;9.996;2022-11-15T05:34:06;10.20;;;4.40;;
25079;SDS011;13071;48.868;9.996;2022-11-15T05:36:33;6.13;;;3.70;;
25079;SDS011;13071;48.868;9.996;2022-11-15T05:39:04;9.65;;;4.82;;
25079;SDS011;13071;48.868;9.996;2022-11-15T05:41:32;9.18;;;4.57;;
25079;SDS011;13071;48.868;9.996;2022-11-15T05:44:03;8.55;;;4.05;;
25079;SDS011;13071;48.868;9.996;2022-11-15T05:46:33;9.63;;;4.40;;
25079;SDS011;13071;48.868;9.996;2022-11-15T05:49:02;11.57;;;4.97;;
25079;SDS011;13071;48.868;9.996;2022-11-15T05:51:31;8.57;;;4.28;;
25079;SDS011;13071;48.868;9.996;2022-11-15T05:53:58;9.65;;;4.75;;
25079;SDS011;13071;48.868;9.996;2022-11-15T05:56:25;10.23;;;5.10;;
25079;SDS011;13071;48.868;9.996;2022-11-15T05:58:52;10.05;;;4.80;;
25079;SDS011;13071;48.868;9.996;2022-11-15T06:01:22;7.72;;;4.80;;
25079;SDS011;13071;48.868;9.996;2022-11-15T06:03:49;9.18;;;4.97;;
25079;SDS011;13071;48.868;9.996;2022-11-15T06:06:15;9.15;;;4.90;;
25079;SDS011;13071;48.868;9.996;2022-11-15T06:08:42;10.10;;;5.22;;
25079;SDS011;13071;48.868;9.996;2022-11-15T06:11:09;12.52;;;4.88;;
25079;SDS011;13071;48.868;9.996;2022-11-15T06:13:35;11.90;;;5.00;;
25079;SDS011;13071;48.868;9.996;2022-11-15T06:16:02;11.15;;;5.28;;
25079;SDS011;13071;48.868;9.996;2022-11-15T06:18:32;10.18;;;5.13;;
25079;SDS011;13071;48.868;9.996;2022-11-15T06:20:59;8.90;;;4.95;;
25079;SDS011;13071;48.868;9.996;2022-11-15T06:23:26;9.93;;;5.20;;
25079;SDS011;13071;48.868;9.996;2022-11-15T06:25:53;7.68;;;4.82;;
25079;SDS011;13071;48.868;9.996;2022-11-15T06:28:23;11.82;;;5.03;;
25079;SDS011;13071;48.868;9.996;2022-11-15T06:30:49;9.27;;;4.80;;
25079;SDS011;13071;48.868;9.996;2022-11-15T06:33:16;9.63;;;4.93;;
25079;SDS011;13071;48.868;9.996;2022-11-15T06:35:44;11.90;;;5.35;;
25079;SDS011;13071;48.868;9.996;2022-11-15T06:38:11;10.85;;;5.47;;
25079;SDS011;13071;48.868;9.996;2022-11-15T06:40:38;10.82;;;5.50;;
25079;SDS011;13071;48.868;9.996;2022-11-15T06:43:05;11.35;;;5.90;;
25079;SDS011;13071;48.868;9.996;2022-11-15T06:45:32;13.07;;;6.13;;
25079;SDS011;13071;48.868;9.996;2022-11-15T06:47:59;11.05;;;5.43;;
25079;SDS011;13071;48.868;9.996;2022-11-15T06:50:25;10.75;;;5.53;;
25079;SDS011;13071;48.868;9.996;2022-11-15T06:52:53;9.95;;;5.50;;
25079;SDS011;13071;48.868;9.996;2022-11-15T06:55:20;15.25;;;5.47;;
25079;SDS011;13071;48.868;9.996;2022-11-15T06:57:47;10.32;;;4.90;;
25079;SDS011;13071;48.868;9.996;2022-11-15T07:00:15;11.02;;;5.07;;
25079;SDS011;13071;48.868;9.996;2022-11-15T07:02:43;9.32;;;5.32;;
25079;SDS011;13071;48.868;9.996;2022-11-15T07:05:10;8.57;;;5.00;;
25079;SDS011;13071;48.868;9.996;2022-11-15T07:07:37;9.68;;;4.50;;
25079;SDS011;13071;48.868;9.996;2022-11-15T07:10:06;15.35;;;5.65;;
25079;SDS011;13071;48.868;9.996;2022-11-15T07:12:33;11.23;;;5.40;;
25079;SDS011;13071;48.868;9.996;2022-11-15T07:15:00;10.38;;;4.72;;
25079;SDS011;13071;48.868;9.996;2022-11-15T07:17:27;9.38;;;5.07;;
25079;SDS011;13071;48.868;9.996;2022-11-15T07:19:53;11.60;;;5.35;;
25079;SDS011;13071;48.868;9.996;2022-11-15T07:22:20;10.80;;;5.03;;
25079;SDS011;13071;48.868;9.996;2022-11-15T07:24:46;9.10;;;4.90;;
25079;SDS011;13071;48.868;9.996;2022-11-15T07:27:14;10.70;;;4.88;;
25079;SDS011;13071;48.868;9.996;2022-11-15T07:29:41;11.05;;;5.30;;
25079;SDS011;13071;48.868;9.996;2022-11-15T07:32:08;10.82;;;4.63;;
25079;SDS011;13071;48.868;9.996;2022-11-15T07:34:35;8.77;;;4.22;;
25079;SDS011;13071;48.868;9.996;2022-11-15T07:37:01;10.38;;;5.15;;
25079;SDS011;13071;48.868;9.996;2022-11-15T07:39:28;8.00;;;4.43;;
25079;SDS011;13071;48.868;9.996;2022-11-15T07:41:55;8.50;;;4.65;;
25079;SDS011;13071;48.868;9.996;2022-11-15T07:44:37;9.25;;;4.75;;
25079;SDS011;13071;48.868;9.996;2022-11-15T07:47:03;8.18;;;4.70;;
25079;SDS011;13071;48.868;9.996;2022-11-15T07:49:30;8.13;;;4.55;;
25079;SDS011;13071;48.868;9.996;2022-11-15T07:51:57;13.32;;;5.05;;
25079;SDS011;13071;48.868;9.996;2022-11-15T07:54:23;11.15;;;5.30;;
25079;SDS011;13071;48.868;9.996;2022-11-15T07:56:50;10.27;;;4.90;;
25079;SDS011;13071;48.868;9.996;2022-11-15T07:59:16;12.02;;;4.97;;
25079;SDS011;13071;48.868;9.996;2022-11-15T08:01:45;15.30;;;5.60;;
25079;SDS011;13071;48.868;9.996;2022-11-15T08:04:12;8.18;;;4.50;;
25079;SDS011;13071;48.868;9.996;2022-11-15T08:06:39;8.35;;;5.03;;
25079;SDS011;13071;48.868;9.996;2022-11-15T08:09:05;12.20;;;6.47;;
25079;SDS011;13071;48.868;9.996;2022-11-15T08:11:32;11.07;;;6.10;;
25079;SDS011;13071;48.868;9.996;2022-11-15T08:13:59;11.45;;;6.50;;
25079;SDS011;13071;48.868;9.996;2022-11-15T08:16:26;15.18;;;5.53;;
25079;SDS011;13071;48.868;9.996;2022-11-15T08:18:53;9.50;;;6.00;;
25079;SDS011;13071;48.868;9.996;2022-11-15T08:21:20;11.65;;;5.65;;
25079;SDS011;13071;48.868;9.996;2022-11-15T08:23:47;9.45;;;5.40;;
25079;SDS011;13071;48.868;9.996;2022-11-15T08:26:14;14.00;;;5.45;;
25079;SDS011;13071;48.868;9.996;2022-11-15T08:28:41;12.82;;;5.65;;
25079;SDS011;13071;48.868;9.996;2022-11-15T08:31:12;12.00;;;5.45;;
25079;SDS011;13071;48.868;9.996;2022-11-15T08:33:40;11.88;;;5.00;;
25079;SDS011;13071;48.868;9.996;2022-11-15T08:36:11;12.75;;;5.88;;
25079;SDS011;13071;48.868;9.996;2022-11-15T08:38:39;9.07;;;4.93;;
25079;SDS011;13071;48.868;9.996;2022-11-15T08:41:06;11.07;;;4.97;;
25079;SDS011;13071;48.868;9.996;2022-11-15T08:43:33;10.05;;;5.20;;
25079;SDS011;13071;48.868;9.996;2022-11-15T08:45:59;10.05;;;5.10;;
25079;SDS011;13071;48.868;9.996;2022-11-15T08:48:26;9.98;;;5.43;;
25079;SDS011;13071;48.868;9.996;2022-11-15T08:50:53;9.38;;;5.20;;
25079;SDS011;13071;48.868;9.996;2022-11-15T08:53:21;9.75;;;5.00;;
25079;SDS011;13071;48.868;9.996;2022-11-15T08:55:48;11.23;;;5.18;;
25079;SDS011;13071;48.868;9.996;2022-11-15T08:58:15;9.98;;;4.97;;
25079;SDS011;13071;48.868;9.996;2022-11-15T09:00:41;8.05;;;4.45;;
25079;SDS011;13071;48.868;9.996;2022-11-15T09:03:08;11.52;;;4.97;;
25079;SDS011;13071;48.868;9.996;2022-11-15T09:05:35;9.82;;;4.90;;
25079;SDS011;13071;48.868;9.996;2022-11-15T09:08:03;9.43;;;4.55;;
25079;SDS011;13071;48.868;9.996;2022-11-15T09:10:31;6.47;;;4.35;;
25079;SDS011;13071;48.868;9.996;2022-11-15T09:12:58;10.70;;;4.40;;
25079;SDS011;13071;48.868;9.996;2022-11-15T09:15:24;6.78;;;4.65;;
25079;SDS011;13071;48.868;9.996;2022-11-15T09:17:51;7.75;;;4.70;;
25079;SDS011;13071;48.868;9.996;2022-11-15T09:20:18;8.38;;;4.18;;
25079;SDS011;13071;48.868;9.996;2022-11-15T09:22:44;7.28;;;4.28;;
25079;SDS011;13071;48.868;9.996;2022-11-15T09:25:11;8.25;;;4.72;;
25079;SDS011;13071;48.868;9.996;2022-11-15T09:27:39;6.75;;;3.83;;
25079;SDS011;13071;48.868;9.996;2022-11-15T09:30:06;6.75;;;3.80;;
25079;SDS011;13071;48.868;9.996;2022-11-15T09:32:33;7.53;;;3.17;;
25079;SDS011;13071;48.868;9.996;2022-11-15T09:35:00;5.35;;;3.08;;
25079;SDS011;13071;48.868;9.996;2022-11-15T09:37:28;5.28;;;3.13;;
25079;SDS011;13071;48.868;9.996;2022-11-15T09:39:54;7.18;;;3.38;;
25079;SDS011;13071;48.868;9.996;2022-11-15T09:42:24;6.65;;;3.88;;
25079;SDS011;13071;48.868;9.996;2022-11-15T09:45:06;7.60;;;4.07;;
25079;SDS011;13071;48.868;9.996;2022-11-15T09:47:49;6.22;;;3.70;;
25079;SDS011;13071;48.868;9.996;2022-11-15T09:50:31;7.55;;;4.40;;
25079;SDS011;13071;48.868;9.996;2022-11-15T09:53:02;5.47;;;3.72;;
25079;SDS011;13071;48.868;9.996;2022-11-15T09:55:32;5.10;;;3.42;;
25079;SDS011;13071;48.868;9.996;2022-11-15T09:58:07;7.50;;;3.55;;
25079;SDS011;13071;48.868;9.996;2022-11-15T10:00:44;7.82;;;3.85;;
25079;SDS011;13071;48.868;9.996;2022-11-15T10:03:18;6.60;;;3.65;;
25079;SDS011;13071;48.868;9.996;2022-11-15T10:05:50;4.88;;;3.55;;
25079;SDS011;13071;48.868;9.996;2022-11-15T10:08:25;5.25;;;3.50;;
25079;SDS011;13071;48.868;9.996;2022-11-15T10:11:01;4.43;;;3.65;;
25079;SDS011;13071;48.868;9.996;2022-11-15T10:13:30;3.75;;;3.00;;
25079;SDS011;13071;48.868;9.996;2022-11-15T10:16:04;4.55;;;2.72;;
25079;SDS011;13071;48.868;9.996;2022-11-15T10:18:41;5.78;;;2.67;;
25079;SDS011;13071;48.868;9.996;2022-11-15T10:21:17;7.38;;;3.17;;
25079;SDS011;13071;48.868;9.996;2022-11-15T10:23:46;3.70;;;2.53;;
25079;SDS011;13071;48.868;9.996;2022-11-15T10:26:15;4.95;;;2.90;;
25079;SDS011;13071;48.868;9.996;2022-11-15T10:28:43;5.43;;;3.30;;
25079;SDS011;13071;48.868;9.996;2022-11-15T10:31:22;3.83;;;2.47;;
25079;SDS011;13071;48.868;9.996;2022-11-15T10:33:50;4.05;;;2.80;;
25079;SDS011;13071;48.868;9.996;2022-11-15T10:36:23;5.63;;;3.35;;
25079;SDS011;13071;48.868;9.996;2022-11-15T10:38:52;5.50;;;3.22;;
25079;SDS011;13071;48.868;9.996;2022-11-15T10:41:21;4.82;;;3.08;;
25079;SDS011;13071;48.868;9.996;2022-11-15T10:44:01;3.75;;;2.70;;
25079;SDS011;13071;48.868;9.996;2022-11-15T10:46:36;5.40;;;2.97;;
25079;SDS011;13071;48.868;9.996;2022-11-15T10:49:11;5.18;;;2.83;;
25079;SDS011;13071;48.868;9.996;2022-11-15T10:51:41;4.95;;;2.95;;
25079;SDS011;13071;48.868;9.996;2022-11-15T10:54:10;6.93;;;2.97;;
25079;SDS011;13071;48.868;9.996;2022-11-15T10:56:41;4.35;;;2.67;;
25079;SDS011;13071;48.868;9.996;2022-11-15T10:59:14;5.68;;;2.67;;
25079;SDS011;13071;48.868;9.996;2022-11-15T11:01:48;5.15;;;2.80;;
25079;SDS011;13071;48.868;9.996;2022-11-15T11:04:15;2.72;;;1.95;;
25079;SDS011;13071;48.868;9.996;2022-11-15T11:06:48;2.42;;;2.05;;
25079;SDS011;13071;48.868;9.996;2022-11-15T11:09:22;4.90;;;2.40;;
25079;SDS011;13071;48.868;9.996;2022-11-15T11:11:58;3.05;;;1.77;;
25079;SDS011;13071;48.868;9.996;2022-11-15T11:14:25;1.42;;;1.38;;
25079;SDS011;13071;48.868;9.996;2022-11-15T11:16:59;1.60;;;1.35;;
25079;SDS011;13071;48.868;9.996;2022-11-15T11:19:43;1.50;;;1.40;;
25079;SDS011;13071;48.868;9.996;2022-11-15T11:22:23;1.40;;;1.30;;
25079;SDS011;13071;48.868;9.996;2022-11-15T11:24:58;2.08;;;1.52;;
25079;SDS011;13071;48.868;9.996;2022-11-15T11:27:36;2.58;;;1.48;;
25079;SDS011;13071;48.868;9.996;2022-11-15T11:30:14;2.05;;;1.63;;
25079;SDS011;13071;48.868;9.996;2022-11-15T11:32:49;1.95;;;1.85;;
25079;SDS011;13071;48.868;9.996;2022-11-15T11:35:23;1.75;;;1.50;;
25079;SDS011;13071;48.868;9.996;2022-11-15T11:40:50;3.00;;;2.17;;
25079;SDS011;13071;48.868;9.996;2022-11-15T11:43:26;1.75;;;1.65;;
25079;SDS011;13071;48.868;9.996;2022-11-15T11:46:04;3.55;;;1.92;;
25079;SDS011;13071;48.868;9.996;2022-11-15T11:48:48;1.67;;;1.50;;
25079;SDS011;13071;48.868;9.996;2022-11-15T11:51:20;1.60;;;1.50;;
25079;SDS011;13071;48.868;9.996;2022-11-15T11:53:55;3.28;;;2.25;;
25079;SDS011;13071;48.868;9.996;2022-11-15T11:56:27;1.98;;;1.77;;
25079;SDS011;13071;48.868;9.996;2022-11-15T11:58:59;2.00;;;1.83;;
25079;SDS011;13071;48.868;9.996;2022-11-15T12:01:32;2.80;;;1.85;;
25079;SDS011;13071;48.868;9.996;2022-11-15T12:04:05;2.10;;;1.90;;
25079;SDS011;13071;48.868;9.996;2022-11-15T12:06:38;2.65;;;1.80;;
25079;SDS011;13071;48.868;9.996;2022-11-15T12:09:12;2.35;;;1.60;;
25079;SDS011;13071;48.868;9.996;2022-11-15T12:11:43;4.82;;;1.92;;
25079;SDS011;13071;48.868;9.996;2022-11-15T12:14:21;2.83;;;2.10;;
25079;SDS011;13071;48.868;9.996;2022-11-15T12:16:53;3.20;;;2.10;;
25079;SDS011;13071;48.868;9.996;2022-11-15T12:19:21;3.25;;;1.92;;
25079;SDS011;13071;48.868;9.996;2022-11-15T12:21:49;3.40;;;2.08;;
25079;SDS011;13071;48.868;9.996;2022-11-15T12:24:23;2.35;;;1.80;;
25079;SDS011;13071;48.868;9.996;2022-11-15T12:26:54;4.22;;;1.90;;
25079;SDS011;13071;48.868;9.996;2022-11-15T12:29:26;3.78;;;1.85;;
25079;SDS011;13071;48.868;9.996;2022-11-15T12:31:57;1.95;;;1.80;;
25079;SDS011;13071;48.868;9.996;2022-11-15T12:34:34;2.17;;;1.67;;
25079;SDS011;13071;48.868;9.996;2022-11-15T12:40:16;2.28;;;1.63;;
25079;SDS011;13071;48.868;9.996;2022-11-15T12:42:56;4.80;;;1.88;;
25079;SDS011;13071;48.868;9.996;2022-11-15T12:45:29;1.45;;;1.35;;
25079;SDS011;13071;48.868;9.996;2022-11-15T12:48:20;1.65;;;1.40;;
25079;SDS011;13071;48.868;9.996;2022-11-15T12:51:18;6.93;;;2.35;;
25079;SDS011;13071;48.868;9.996;2022-11-15T12:53:46;1.60;;;1.50;;
25079;SDS011;13071;48.868;9.996;2022-11-15T12:56:20;1.33;;;1.23;;
25079;SDS011;13071;48.868;9.996;2022-11-15T12:58:49;2.90;;;1.70;;
25079;SDS011;13071;48.868;9.996;2022-11-15T13:04:22;4.38;;;2.03;;
25079;SDS011;13071;48.868;9.996;2022-11-15T13:06:53;2.83;;;1.85;;
25079;SDS011;13071;48.868;9.996;2022-11-15T13:18:32;6.65;;;2.20;;
25079;SDS011;13071;48.868;9.996;2022-11-15T13:21:01;2.65;;;2.10;;
25079;SDS011;13071;48.868;9.996;2022-11-15T13:23:53;2.33;;;1.63;;
25079;SDS011;13071;48.868;9.996;2022-11-15T13:26:21;2.55;;;1.60;;
25079;SDS011;13071;48.868;9.996;2022-11-15T13:28:49;1.75;;;1.50;;
25079;SDS011;13071;48.868;9.996;2022-11-15T13:31:24;1.77;;;1.50;;
25079;SDS011;13071;48.868;9.996;2022-11-15T13:33:54;2.63;;;1.40;;
25079;SDS011;13071;48.868;9.996;2022-11-15T13:36:24;1.77;;;1.63;;
25079;SDS011;13071;48.868;9.996;2022-11-15T13:38:56;4.30;;;1.80;;
25079;SDS011;13071;48.868;9.996;2022-11-15T13:41:25;2.10;;;1.73;;
25079;SDS011;13071;48.868;9.996;2022-11-15T13:43:53;2.85;;;1.50;;
25079;SDS011;13071;48.868;9.996;2022-11-15T13:46:22;2.00;;;1.63;;
25079;SDS011;13071;48.868;9.996;2022-11-15T13:48:54;1.85;;;1.67;;
25079;SDS011;13071;48.868;9.996;2022-11-15T13:51:24;2.78;;;2.00;;
25079;SDS011;13071;48.868;9.996;2022-11-15T13:54:01;3.08;;;1.85;;
25079;SDS011;13071;48.868;9.996;2022-11-15T13:56:32;5.40;;;1.85;;
25079;SDS011;13071;48.868;9.996;2022-11-15T13:59:00;3.38;;;2.03;;
25079;SDS011;13071;48.868;9.996;2022-11-15T14:01:28;2.63;;;1.70;;
25079;SDS011;13071;48.868;9.996;2022-11-15T14:03:58;4.18;;;2.20;;
25079;SDS011;13071;48.868;9.996;2022-11-15T14:06:27;4.97;;;2.00;;
25079;SDS011;13071;48.868;9.996;2022-11-15T14:11:59;3.85;;;2.20;;
25079;SDS011;13071;48.868;9.996;2022-11-15T14:14:26;2.85;;;1.80;;
25079;SDS011;13071;48.868;9.996;2022-11-15T14:16:55;2.58;;;1.92;;
25079;SDS011;13071;48.868;9.996;2022-11-15T14:19:34;3.05;;;1.95;;
25079;SDS011;13071;48.868;9.996;2022-11-15T14:22:17;3.50;;;1.95;;
25079;SDS011;13071;48.868;9.996;2022-11-15T14:25:03;3.08;;;1.88;;
25079;SDS011;13071;48.868;9.996;2022-11-15T14:27:33;4.43;;;2.42;;
25079;SDS011;13071;48.868;9.996;2022-11-15T14:30:00;2.83;;;2.22;;
25079;SDS011;13071;48.868;9.996;2022-11-15T14:32:27;4.10;;;2.30;;
25079;SDS011;13071;48.868;9.996;2022-11-15T14:34:56;2.45;;;2.25;;
25079;SDS011;13071;48.868;9.996;2022-11-15T14:37:24;4.32;;;2.20;;
25079;SDS011;13071;48.868;9.996;2022-11-15T14:39:53;2.97;;;2.00;;
25079;SDS011;13071;48.868;9.996;2022-11-15T14:42:21;2.97;;;1.85;;
25079;SDS011;13071;48.868;9.996;2022-11-15T14:44:48;2.83;;;2.13;;
25079;SDS011;13071;48.868;9.996;2022-11-15T14:47:15;1.95;;;1.73;;
25079;SDS011;13071;48.868;9.996;2022-11-15T14:49:42;3.47;;;2.00;;
25079;SDS011;13071;48.868;9.996;2022-11-15T14:54:54;3.22;;;2.60;;
25079;SDS011;13071;48.868;9.996;2022-11-15T14:57:21;4.07;;;2.42;;
25079;SDS011;13071;48.868;9.996;2022-11-15T14:59:48;5.85;;;2.70;;
25079;SDS011;13071;48.868;9.996;2022-11-15T15:02:15;2.88;;;2.40;;
25079;SDS011;13071;48.868;9.996;2022-11-15T15:04:45;4.38;;;2.40;;
25079;SDS011;13071;48.868;9.996;2022-11-15T15:07:12;9.38;;;4.45;;
25079;SDS011;13071;48.868;9.996;2022-11-15T15:09:38;20.60;;;7.18;;
25079;SDS011;13071;48.868;9.996;2022-11-15T15:12:09;22.60;;;7.57;;
25079;SDS011;13071;48.868;9.996;2022-11-15T15:14:42;19.05;;;7.53;;
25079;SDS011;13071;48.868;9.996;2022-11-15T15:17:09;9.38;;;4.60;;
25079;SDS011;13071;48.868;9.996;2022-11-15T15:19:36;9.88;;;4.22;;
25079;SDS011;13071;48.868;9.996;2022-11-15T15:22:02;8.57;;;4.35;;
25079;SDS011;13071;48.868;9.996;2022-11-15T15:24:29;6.55;;;3.30;;
25079;SDS011;13071;48.868;9.996;2022-11-15T15:26:56;6.13;;;3.03;;
25079;SDS011;13071;48.868;9.996;2022-11-15T15:29:24;4.53;;;2.95;;
25079;SDS011;13071;48.868;9.996;2022-11-15T15:31:50;8.88;;;3.10;;